createdAt,value
2022-09-12T00:02:08.306Z,15.59
2022-09-12T00:07:09.869Z,15.59
2022-09-12T00:12:11.422Z,15.66
2022-09-12T00:17:12.946Z,15.66
2022-09-12T00:22:14.485Z,15.75
2022-09-12T00:27:16.104Z,15.80
2022-09-12T00:32:17.633Z,15.69
2022-09-12T00:37:19.166Z,15.75
2022-09-12T00:42:20.705Z,15.74
2022-09-12T00:47:32.789Z,15.91
2022-09-12T00:52:42.454Z,15.79
2022-09-12T00:57:52.254Z,15.86
2022-09-12T01:02:58.944Z,15.75
2022-09-12T01:08:03.240Z,15.78
2022-09-12T01:13:07.249Z,15.78
2022-09-12T01:18:19.067Z,15.67
2022-09-12T01:23:57.304Z,15.57
2022-09-12T01:29:08.064Z,15.65
2022-09-12T01:34:09.538Z,15.59
2022-09-12T01:39:25.988Z,15.47
2022-09-12T01:44:36.281Z,15.51
2022-09-12T01:49:52.211Z,15.42
2022-09-12T01:55:01.626Z,15.53
2022-09-12T02:00:09.915Z,15.57
2022-09-12T02:05:18.206Z,15.45
2022-09-12T02:10:27.134Z,15.40
2022-09-12T02:15:37.869Z,15.40
2022-09-12T02:20:49.197Z,15.41
2022-09-12T02:25:56.147Z,15.31
2022-09-12T02:31:09.653Z,15.31
2022-09-12T02:36:15.444Z,15.33
2022-09-12T02:41:20.660Z,15.40
2022-09-12T02:46:30.976Z,15.38
2022-09-12T02:51:33.086Z,15.51
2022-09-12T02:56:35.410Z,15.42
2022-09-12T03:01:39.664Z,15.41
2022-09-12T03:06:55.450Z,15.48
2022-09-12T03:12:02.645Z,15.52
2022-09-12T03:17:39.800Z,15.54
2022-09-12T03:22:53.767Z,15.39
2022-09-12T03:28:07.383Z,15.36
2022-09-12T03:33:16.684Z,15.25
2022-09-12T03:38:19.225Z,15.32
2022-09-12T03:43:20.881Z,15.45
2022-09-12T03:48:22.472Z,15.56
2022-09-12T03:53:24.018Z,15.43
2022-09-12T03:58:30.653Z,15.43
2022-09-12T04:03:32.175Z,15.35
2022-09-12T04:08:35.521Z,15.35
2022-09-12T04:13:38.272Z,15.46
2022-09-12T04:18:40.257Z,15.52
2022-09-12T04:23:42.579Z,15.36
2022-09-12T04:28:45.073Z,15.39
2022-09-12T04:33:46.973Z,15.46
2022-09-12T04:38:48.603Z,15.46
2022-09-12T04:44:02.388Z,15.58
2022-09-12T04:49:04.378Z,15.50
2022-09-12T04:54:09.376Z,15.46
2022-09-12T04:59:12.130Z,15.57
2022-09-12T05:04:13.859Z,15.54
2022-09-12T05:09:16.553Z,15.50
2022-09-12T05:14:18.086Z,15.58
2022-09-12T05:19:19.634Z,15.61
2022-09-12T05:24:21.163Z,15.56
2022-09-12T05:29:22.900Z,15.60
2022-09-12T05:34:24.635Z,15.71
2022-09-12T05:39:26.207Z,15.76
2022-09-12T05:44:28.274Z,15.83
2022-09-12T05:49:30.287Z,15.92
2022-09-12T05:54:31.912Z,16.04
2022-09-12T05:59:33.467Z,16.15
2022-09-12T06:04:34.986Z,16.29
2022-09-12T06:09:36.560Z,16.40
2022-09-12T06:14:38.938Z,16.58
2022-09-12T06:19:40.474Z,16.55
2022-09-12T06:24:42.117Z,16.34
2022-09-12T06:29:43.688Z,16.50
2022-09-12T06:34:47.695Z,16.54
2022-09-12T06:39:49.332Z,16.69
2022-09-12T06:44:50.979Z,17.28
2022-09-12T06:49:52.516Z,17.23
2022-09-12T06:54:54.046Z,17.32
2022-09-12T06:59:55.587Z,17.40
2022-09-12T07:04:57.100Z,17.62
2022-09-12T07:09:58.675Z,17.51
2022-09-12T07:15:01.117Z,17.34
2022-09-12T07:20:02.973Z,17.68
2022-09-12T07:25:05.175Z,17.62
2022-09-12T07:30:07.875Z,17.90
2022-09-12T07:35:09.472Z,18.21
2022-09-12T07:40:11.196Z,18.34
2022-09-12T07:45:13.390Z,18.44
2022-09-12T07:50:15.672Z,18.59
2022-09-12T07:55:17.314Z,18.38
2022-09-12T08:00:19.335Z,18.43
2022-09-12T08:05:21.006Z,18.62
2022-09-12T08:10:22.548Z,18.90
2022-09-12T08:15:25.194Z,19.18
2022-09-12T08:20:28.460Z,19.37
2022-09-12T08:25:30.468Z,19.28
2022-09-12T08:30:32.075Z,19.50
2022-09-12T08:35:33.644Z,19.75
2022-09-12T08:40:51.379Z,19.85
2022-09-12T08:46:08.672Z,19.88
2022-09-12T08:51:14.174Z,19.69
2022-09-12T08:56:16.799Z,19.51
2022-09-12T09:01:18.336Z,19.88
2022-09-12T09:06:38.453Z,20.26
2022-09-12T09:11:42.742Z,20.19
2022-09-12T09:16:46.804Z,19.92
2022-09-12T09:21:54.580Z,19.54
2022-09-12T09:27:23.498Z,19.30
2022-09-12T09:32:41.133Z,19.03
2022-09-12T09:37:56.761Z,18.91
2022-09-12T09:43:24.528Z,18.75
2022-09-12T09:48:30.855Z,18.97
2022-09-12T09:53:46.329Z,19.14
2022-09-12T09:58:48.033Z,19.63
2022-09-12T10:03:51.285Z,19.85
2022-09-12T10:09:17.526Z,20.07
2022-09-12T10:14:38.000Z,20.30
2022-09-12T10:19:40.447Z,20.58
2022-09-12T10:24:47.303Z,20.08
2022-09-12T10:30:17.880Z,19.90
2022-09-12T10:35:25.940Z,19.93
2022-09-12T10:40:31.720Z,20.19
2022-09-12T10:45:36.399Z,20.39
2022-09-12T10:50:43.842Z,20.22
2022-09-12T10:56:18.450Z,20.61
2022-09-12T11:01:36.402Z,20.76
2022-09-12T11:07:15.229Z,20.65
2022-09-12T11:12:25.965Z,20.46
2022-09-12T11:17:42.449Z,20.52
2022-09-12T11:23:08.056Z,20.26
2022-09-12T11:28:21.826Z,20.33
2022-09-12T11:33:44.131Z,20.78
2022-09-12T11:39:02.231Z,20.97
2022-09-12T11:44:19.039Z,21.03
2022-09-12T11:49:36.845Z,21.23
2022-09-12T11:55:03.881Z,21.21
2022-09-12T12:00:08.780Z,21.05
2022-09-12T12:05:37.316Z,20.60
2022-09-12T12:10:40.929Z,20.48
2022-09-12T12:15:52.866Z,20.38
2022-09-12T12:20:56.078Z,20.23
2022-09-12T12:26:03.541Z,20.33
2022-09-12T12:31:05.515Z,20.33
2022-09-12T12:36:28.908Z,20.07
2022-09-12T12:41:36.202Z,20.31
2022-09-12T12:46:38.682Z,20.35
2022-09-12T12:51:43.077Z,20.54
2022-09-12T12:56:44.693Z,20.50
2022-09-12T13:01:55.310Z,20.57
2022-09-12T13:07:07.170Z,20.81
2022-09-12T13:12:17.521Z,20.63
2022-09-12T13:17:31.472Z,20.56
2022-09-12T13:22:47.759Z,20.64
2022-09-12T13:28:18.475Z,20.55
2022-09-12T13:33:29.186Z,20.58
2022-09-12T13:38:55.549Z,20.50
2022-09-12T13:43:57.278Z,20.50
2022-09-12T13:49:01.157Z,20.75
2022-09-12T13:54:05.409Z,20.46
2022-09-12T13:59:12.417Z,20.49
2022-09-12T14:04:36.804Z,20.49
2022-09-12T14:09:41.515Z,20.60
2022-09-12T14:14:43.955Z,20.58
2022-09-12T14:19:46.691Z,20.71
2022-09-12T14:24:52.575Z,20.86
2022-09-12T14:30:02.304Z,20.94
2022-09-12T14:35:18.236Z,20.84
2022-09-12T14:40:22.441Z,20.78
2022-09-12T14:45:27.204Z,20.69
2022-09-12T14:50:35.355Z,20.68
2022-09-12T14:55:44.974Z,20.54
2022-09-12T15:00:58.557Z,20.44
2022-09-12T15:06:03.129Z,20.40
2022-09-12T15:11:06.642Z,20.33
2022-09-12T15:16:11.728Z,20.23
2022-09-12T15:21:17.475Z,20.00
2022-09-12T15:26:24.066Z,19.78
2022-09-12T15:31:31.243Z,19.81
2022-09-12T15:36:33.307Z,19.78
2022-09-12T15:41:37.129Z,19.78
2022-09-12T15:46:39.142Z,19.78
2022-09-12T15:51:40.800Z,19.79
2022-09-12T15:56:42.571Z,19.80
2022-09-12T16:01:44.131Z,19.60
2022-09-12T16:06:45.733Z,19.36
2022-09-12T16:11:47.731Z,19.35
2022-09-12T16:16:54.330Z,19.34
2022-09-12T16:21:55.911Z,19.14
2022-09-12T16:27:01.161Z,19.14
2022-09-12T16:32:03.392Z,18.87
2022-09-12T16:37:05.677Z,18.79
2022-09-12T16:42:07.347Z,18.74
2022-09-12T16:47:08.872Z,18.58
2022-09-12T16:52:10.955Z,18.48
2022-09-12T16:57:12.529Z,18.39
2022-09-12T17:02:14.995Z,18.26
2022-09-12T17:07:16.595Z,18.13
2022-09-12T17:12:18.122Z,18.02
2022-09-12T17:17:19.745Z,17.93
2022-09-12T17:22:21.331Z,17.83
2022-09-12T17:27:22.860Z,17.74
2022-09-12T17:32:24.525Z,17.66
2022-09-12T17:37:26.061Z,17.58
2022-09-12T17:42:27.619Z,17.47
2022-09-12T17:47:29.188Z,17.38
2022-09-12T17:52:31.101Z,17.31
2022-09-12T17:57:32.615Z,17.21
2022-09-12T18:02:35.118Z,17.13
2022-09-12T18:07:38.968Z,17.03
2022-09-12T18:12:43.731Z,16.98
2022-09-12T18:17:45.256Z,16.90
2022-09-12T18:22:49.781Z,16.82
2022-09-12T18:27:51.651Z,16.75
2022-09-12T18:32:53.192Z,16.68
2022-09-12T18:37:55.117Z,16.63
2022-09-12T18:42:56.700Z,16.56
2022-09-12T18:47:58.253Z,16.50
2022-09-12T18:53:00.133Z,16.46
2022-09-12T18:58:01.758Z,16.43
2022-09-12T19:03:03.289Z,16.33
2022-09-12T19:08:05.130Z,16.27
2022-09-12T19:13:07.012Z,16.21
2022-09-12T19:18:09.562Z,16.15
2022-09-12T19:23:11.120Z,16.11
2022-09-12T19:28:12.637Z,16.05
2022-09-12T19:33:14.275Z,16.00
2022-09-12T19:38:16.691Z,15.94
2022-09-12T19:43:18.207Z,15.87
2022-09-12T19:48:20.254Z,15.81
2022-09-12T19:53:21.827Z,15.78
2022-09-12T19:58:23.474Z,15.74
2022-09-12T20:03:25.080Z,15.71
2022-09-12T20:08:26.980Z,15.69
2022-09-12T20:13:28.699Z,15.64
2022-09-12T20:18:30.235Z,15.63
2022-09-12T20:23:31.797Z,15.57
2022-09-12T20:28:33.404Z,15.54
2022-09-12T20:33:35.048Z,15.50
2022-09-12T20:38:36.713Z,15.40
2022-09-12T20:43:39.773Z,15.40
2022-09-12T20:48:41.295Z,15.37
2022-09-12T20:53:42.816Z,15.36
2022-09-12T20:58:44.931Z,15.34
2022-09-12T21:03:47.046Z,15.27
2022-09-12T21:08:49.833Z,15.21
2022-09-12T21:13:52.292Z,15.15
2022-09-12T21:18:59.677Z,15.08
2022-09-12T21:24:02.922Z,15.01
2022-09-12T21:29:04.513Z,14.99
2022-09-12T21:34:06.059Z,14.96
2022-09-12T21:39:07.649Z,14.87
2022-09-12T21:44:09.184Z,14.83
2022-09-12T21:49:10.841Z,14.73
2022-09-12T21:54:12.451Z,14.67
2022-09-12T21:59:14.083Z,14.65
2022-09-12T22:04:15.666Z,14.54
2022-09-12T22:09:17.429Z,14.53
2022-09-12T22:14:19.073Z,14.55
2022-09-12T22:19:20.801Z,14.55
2022-09-12T22:24:28.050Z,14.57
2022-09-12T22:29:29.600Z,14.52
2022-09-12T22:34:31.221Z,14.49
2022-09-12T22:39:32.886Z,14.48
2022-09-12T22:44:34.420Z,14.49
2022-09-12T22:49:35.951Z,14.50
2022-09-12T22:54:37.752Z,14.39
2022-09-12T22:59:39.582Z,14.33
2022-09-12T23:04:41.132Z,14.24
2022-09-12T23:09:42.716Z,14.25
2022-09-12T23:14:44.254Z,14.27
2022-09-12T23:19:45.792Z,14.28
2022-09-12T23:24:47.336Z,14.24
2022-09-12T23:29:52.388Z,14.23
2022-09-12T23:34:54.060Z,14.22
2022-09-12T23:39:55.884Z,14.20
2022-09-12T23:44:57.523Z,14.17
2022-09-12T23:49:59.093Z,14.16
2022-09-12T23:55:00.654Z,14.05
